Kinsley, Kansas
Current Conditions -  °F | °C
As of 11:33 AM on Friday 31 Oct 2014 (Local Time) from KDDC Reporting Station
Scattered Clouds Scattered Clouds  
Wind Chill:   Ceiling: Unl
Heat Index:   Visibility: 10mi
Dew Point: -2°   Wind: 10mph
Humidity: 65%   Direction: 20°NNE
Pressure: 30.52"   Gusts: NA
Location:  37.92°N, 99.41°W
Report Text: KDDC 311633Z AUTO 02009KT 10SM SCT015 04/M02 A3052 RMK AO2 T00441017
Loading
Personal Weather Stations






























Interactive Weather Map
Tropical Storm Tracking
New forecast layout! Learn more

10-Day Weather Forecast

Advertisements
Track Severe Weather on mobile